sensor_id;sensor_type;location;lat;lon;timestamp;pressure;altitude;pressure_sealevel;temperature;humidity
19259;BME280;9763;48.780;9.212;2024-03-02T00:03:15;97248.91;;;11.06;65.64
19259;BME280;9763;48.780;9.212;2024-03-02T00:06:40;97252.34;;;11.06;65.59
19259;BME280;9763;48.780;9.212;2024-03-02T00:10:09;97255.78;;;11.07;65.45
19259;BME280;9763;48.780;9.212;2024-03-02T00:13:34;97256.59;;;11.07;66.10
19259;BME280;9763;48.780;9.212;2024-03-02T00:17:00;97258.38;;;11.07;65.27
19259;BME280;9763;48.780;9.212;2024-03-02T00:20:24;97254.94;;;11.06;65.70
19259;BME280;9763;48.780;9.212;2024-03-02T00:23:50;97253.53;;;11.02;65.68
19259;BME280;9763;48.780;9.212;2024-03-02T00:27:17;97260.25;;;10.95;65.47
19259;BME280;9763;48.780;9.212;2024-03-02T00:30:59;97255.66;;;10.88;65.22
19259;BME280;9763;48.780;9.212;2024-03-02T00:34:24;97257.03;;;10.82;65.97
19259;BME280;9763;48.780;9.212;2024-03-02T00:37:48;97261.94;;;10.75;66.02
19259;BME280;9763;48.780;9.212;2024-03-02T00:41:21;97266.84;;;10.69;66.17
19259;BME280;9763;48.780;9.212;2024-03-02T00:44:46;97262.69;;;10.66;65.56
19259;BME280;9763;48.780;9.212;2024-03-02T00:48:10;97254.81;;;10.57;65.64
19259;BME280;9763;48.780;9.212;2024-03-02T00:51:34;97253.63;;;10.61;65.65
19259;BME280;9763;48.780;9.212;2024-03-02T00:54:58;97251.00;;;10.61;65.95
19259;BME280;9763;48.780;9.212;2024-03-02T00:58:23;97256.22;;;10.61;65.83
19259;BME280;9763;48.780;9.212;2024-03-02T01:01:48;97250.31;;;10.59;66.27
19259;BME280;9763;48.780;9.212;2024-03-02T01:05:12;97253.03;;;10.57;65.53
19259;BME280;9763;48.780;9.212;2024-03-02T01:08:36;97254.94;;;10.55;65.76
19259;BME280;9763;48.780;9.212;2024-03-02T01:12:00;97256.84;;;10.53;65.58
19259;BME280;9763;48.780;9.212;2024-03-02T01:15:26;97252.59;;;10.52;66.05
19259;BME280;9763;48.780;9.212;2024-03-02T01:18:50;97253.69;;;10.50;65.60
19259;BME280;9763;48.780;9.212;2024-03-02T01:22:13;97256.44;;;10.48;65.67
19259;BME280;9763;48.780;9.212;2024-03-02T01:25:38;97252.41;;;10.44;66.32
19259;BME280;9763;48.780;9.212;2024-03-02T01:29:02;97244.00;;;10.40;66.32
19259;BME280;9763;48.780;9.212;2024-03-02T01:32:27;97244.41;;;10.36;66.26
19259;BME280;9763;48.780;9.212;2024-03-02T01:35:50;97252.59;;;10.31;66.32
19259;BME280;9763;48.780;9.212;2024-03-02T01:39:13;97254.78;;;10.26;65.85
19259;BME280;9763;48.780;9.212;2024-03-02T01:42:38;97254.06;;;10.24;66.46
19259;BME280;9763;48.780;9.212;2024-03-02T01:46:02;97257.75;;;10.22;66.20
19259;BME280;9763;48.780;9.212;2024-03-02T01:49:27;97257.25;;;10.17;66.48
19259;BME280;9763;48.780;9.212;2024-03-02T01:52:51;97254.22;;;10.11;65.90
19259;BME280;9763;48.780;9.212;2024-03-02T01:56:15;97256.09;;;10.09;66.29
19259;BME280;9763;48.780;9.212;2024-03-02T01:59:38;97255.75;;;10.03;65.94
19259;BME280;9763;48.780;9.212;2024-03-02T02:03:02;97251.06;;;9.97;65.76
19259;BME280;9763;48.780;9.212;2024-03-02T02:06:27;97252.38;;;9.91;66.54
19259;BME280;9763;48.780;9.212;2024-03-02T02:09:51;97248.50;;;9.86;66.22
19259;BME280;9763;48.780;9.212;2024-03-02T02:13:15;97245.44;;;9.81;66.49
19259;BME280;9763;48.780;9.212;2024-03-02T02:16:38;97235.41;;;9.76;65.75
19259;BME280;9763;48.780;9.212;2024-03-02T02:20:04;97238.25;;;9.73;66.37
19259;BME280;9763;48.780;9.212;2024-03-02T02:23:29;97232.81;;;9.65;65.95
19259;BME280;9763;48.780;9.212;2024-03-02T02:26:53;97230.69;;;9.59;66.52
19259;BME280;9763;48.780;9.212;2024-03-02T02:30:20;97231.19;;;9.53;66.64
19259;BME280;9763;48.780;9.212;2024-03-02T02:33:44;97232.16;;;9.52;66.68
19259;BME280;9763;48.780;9.212;2024-03-02T02:37:07;97229.66;;;9.50;65.90
19259;BME280;9763;48.780;9.212;2024-03-02T02:40:32;97228.00;;;9.49;66.49
19259;BME280;9763;48.780;9.212;2024-03-02T02:43:56;97217.81;;;9.46;66.57
19259;BME280;9763;48.780;9.212;2024-03-02T02:47:19;97215.22;;;9.46;66.33
19259;BME280;9763;48.780;9.212;2024-03-02T02:50:44;97201.75;;;9.41;66.57
19259;BME280;9763;48.780;9.212;2024-03-02T02:54:07;97204.59;;;9.38;66.71
19259;BME280;9763;48.780;9.212;2024-03-02T02:57:33;97201.63;;;9.31;66.46
19259;BME280;9763;48.780;9.212;2024-03-02T03:00:59;97216.69;;;9.28;66.57
19259;BME280;9763;48.780;9.212;2024-03-02T03:04:23;97213.72;;;9.21;65.81
19259;BME280;9763;48.780;9.212;2024-03-02T03:07:47;97220.38;;;9.14;66.22
19259;BME280;9763;48.780;9.212;2024-03-02T03:11:12;97212.09;;;9.09;65.88
19259;BME280;9763;48.780;9.212;2024-03-02T03:14:40;97215.19;;;9.03;66.48
19259;BME280;9763;48.780;9.212;2024-03-02T03:18:04;97210.31;;;8.98;66.18
19259;BME280;9763;48.780;9.212;2024-03-02T03:21:28;97221.69;;;8.97;66.34
19259;BME280;9763;48.780;9.212;2024-03-02T03:24:52;97215.88;;;8.94;66.27
19259;BME280;9763;48.780;9.212;2024-03-02T03:28:15;97221.22;;;8.92;66.16
19259;BME280;9763;48.780;9.212;2024-03-02T03:31:41;97214.47;;;8.90;66.17
19259;BME280;9763;48.780;9.212;2024-03-02T03:35:06;97210.44;;;8.86;66.57
19259;BME280;9763;48.780;9.212;2024-03-02T03:38:31;97216.81;;;8.82;66.12
19259;BME280;9763;48.780;9.212;2024-03-02T03:41:55;97211.50;;;8.72;66.66
19259;BME280;9763;48.780;9.212;2024-03-02T03:45:19;97205.25;;;8.63;66.89
19259;BME280;9763;48.780;9.212;2024-03-02T03:48:44;97216.59;;;8.62;66.83
19259;BME280;9763;48.780;9.212;2024-03-02T03:52:08;97215.88;;;8.60;66.89
19259;BME280;9763;48.780;9.212;2024-03-02T03:55:31;97217.06;;;8.56;66.82
19259;BME280;9763;48.780;9.212;2024-03-02T03:58:55;97215.41;;;8.55;66.27
19259;BME280;9763;48.780;9.212;2024-03-02T04:02:18;97216.47;;;8.53;66.20
19259;BME280;9763;48.780;9.212;2024-03-02T04:05:43;97219.28;;;8.50;66.64
19259;BME280;9763;48.780;9.212;2024-03-02T04:09:07;97225.56;;;8.47;66.35
19259;BME280;9763;48.780;9.212;2024-03-02T04:12:31;97217.19;;;8.44;66.74
19259;BME280;9763;48.780;9.212;2024-03-02T04:15:55;97220.81;;;8.41;66.30
19259;BME280;9763;48.780;9.212;2024-03-02T04:19:18;97231.56;;;8.37;66.72
19259;BME280;9763;48.780;9.212;2024-03-02T04:22:43;97226.72;;;8.32;66.58
19259;BME280;9763;48.780;9.212;2024-03-02T04:26:07;97219.75;;;8.33;67.03
19259;BME280;9763;48.780;9.212;2024-03-02T04:29:30;97210.31;;;8.32;66.45
19259;BME280;9763;48.780;9.212;2024-03-02T04:32:54;97217.16;;;8.33;66.77
19259;BME280;9763;48.780;9.212;2024-03-02T04:36:17;97213.72;;;8.32;66.55
19259;BME280;9763;48.780;9.212;2024-03-02T04:39:42;97208.59;;;8.30;66.83
19259;BME280;9763;48.780;9.212;2024-03-02T04:43:06;97214.75;;;8.29;67.08
19259;BME280;9763;48.780;9.212;2024-03-02T04:46:31;97221.72;;;8.29;66.98
19259;BME280;9763;48.780;9.212;2024-03-02T04:49:55;97221.81;;;8.27;66.76
19259;BME280;9763;48.780;9.212;2024-03-02T04:53:18;97220.28;;;8.25;66.54
19259;BME280;9763;48.780;9.212;2024-03-02T04:56:44;97221.31;;;8.22;66.84
19259;BME280;9763;48.780;9.212;2024-03-02T05:00:13;97218.72;;;8.22;66.77
19259;BME280;9763;48.780;9.212;2024-03-02T05:03:37;97216.38;;;8.19;66.61
19259;BME280;9763;48.780;9.212;2024-03-02T05:07:00;97225.00;;;8.20;67.11
19259;BME280;9763;48.780;9.212;2024-03-02T05:10:24;97224.19;;;8.19;67.00
19259;BME280;9763;48.780;9.212;2024-03-02T05:13:48;97222.75;;;8.15;66.60
19259;BME280;9763;48.780;9.212;2024-03-02T05:17:12;97229.00;;;8.13;66.57
19259;BME280;9763;48.780;9.212;2024-03-02T05:20:35;97222.97;;;8.12;66.87
19259;BME280;9763;48.780;9.212;2024-03-02T05:23:59;97228.28;;;8.11;66.32
19259;BME280;9763;48.780;9.212;2024-03-02T05:27:23;97216.56;;;8.05;66.69
19259;BME280;9763;48.780;9.212;2024-03-02T05:30:48;97222.72;;;8.04;66.88
19259;BME280;9763;48.780;9.212;2024-03-02T05:34:11;97230.84;;;8.00;66.43
19259;BME280;9763;48.780;9.212;2024-03-02T05:37:36;97237.78;;;7.99;66.47
19259;BME280;9763;48.780;9.212;2024-03-02T05:40:59;97233.69;;;7.97;67.07
19259;BME280;9763;48.780;9.212;2024-03-02T05:44:23;97232.84;;;7.96;67.05
19259;BME280;9763;48.780;9.212;2024-03-02T05:47:48;97236.38;;;7.95;66.69
19259;BME280;9763;48.780;9.212;2024-03-02T05:51:12;97236.59;;;7.92;67.30
19259;BME280;9763;48.780;9.212;2024-03-02T05:54:35;97242.63;;;7.92;67.01
19259;BME280;9763;48.780;9.212;2024-03-02T05:57:59;97242.72;;;7.91;67.35
19259;BME280;9763;48.780;9.212;2024-03-02T06:01:38;97239.53;;;7.87;66.75
19259;BME280;9763;48.780;9.212;2024-03-02T06:05:03;97242.13;;;7.87;67.01
19259;BME280;9763;48.780;9.212;2024-03-02T06:08:27;97257.59;;;7.89;67.14
19259;BME280;9763;48.780;9.212;2024-03-02T06:11:51;97254.16;;;7.88;67.25
19259;BME280;9763;48.780;9.212;2024-03-02T06:15:15;97257.38;;;7.92;67.70
19259;BME280;9763;48.780;9.212;2024-03-02T06:18:39;97252.81;;;7.95;67.64
19259;BME280;9763;48.780;9.212;2024-03-02T06:22:04;97249.03;;;8.00;67.26
19259;BME280;9763;48.780;9.212;2024-03-02T06:25:28;97250.56;;;8.02;67.76
19259;BME280;9763;48.780;9.212;2024-03-02T06:28:51;97245.25;;;8.04;67.26
19259;BME280;9763;48.780;9.212;2024-03-02T06:32:15;97245.63;;;8.10;67.52
19259;BME280;9763;48.780;9.212;2024-03-02T06:35:38;97261.63;;;8.17;67.60
19259;BME280;9763;48.780;9.212;2024-03-02T06:39:04;97260.22;;;8.24;67.48
19259;BME280;9763;48.780;9.212;2024-03-02T06:42:27;97262.28;;;8.32;67.70
19259;BME280;9763;48.780;9.212;2024-03-02T06:45:55;97259.81;;;8.41;67.12
19259;BME280;9763;48.780;9.212;2024-03-02T06:49:19;97262.56;;;8.51;67.39
19259;BME280;9763;48.780;9.212;2024-03-02T06:52:42;97266.84;;;8.63;66.99
19259;BME280;9763;48.780;9.212;2024-03-02T06:56:08;97275.38;;;8.76;67.68
19259;BME280;9763;48.780;9.212;2024-03-02T06:59:31;97265.69;;;8.89;67.13
19259;BME280;9763;48.780;9.212;2024-03-02T07:02:55;97273.59;;;8.99;67.28
19259;BME280;9763;48.780;9.212;2024-03-02T07:06:19;97273.84;;;9.07;66.89
19259;BME280;9763;48.780;9.212;2024-03-02T07:09:42;97263.31;;;9.20;66.72
19259;BME280;9763;48.780;9.212;2024-03-02T07:13:08;97256.19;;;9.33;66.78
19259;BME280;9763;48.780;9.212;2024-03-02T07:16:32;97264.47;;;9.49;66.79
19259;BME280;9763;48.780;9.212;2024-03-02T07:19:57;97274.50;;;9.65;66.90
19259;BME280;9763;48.780;9.212;2024-03-02T07:23:20;97265.56;;;9.79;66.73
19259;BME280;9763;48.780;9.212;2024-03-02T07:26:46;97272.97;;;9.94;66.58
19259;BME280;9763;48.780;9.212;2024-03-02T07:30:15;97270.56;;;10.14;67.04
19259;BME280;9763;48.780;9.212;2024-03-02T07:33:39;97263.84;;;10.32;66.80
19259;BME280;9763;48.780;9.212;2024-03-02T07:37:03;97266.16;;;10.46;66.68
19259;BME280;9763;48.780;9.212;2024-03-02T07:40:28;97265.38;;;10.55;66.51
19259;BME280;9763;48.780;9.212;2024-03-02T07:43:52;97268.88;;;10.65;66.95
19259;BME280;9763;48.780;9.212;2024-03-02T07:47:17;97272.81;;;10.80;66.50
19259;BME280;9763;48.780;9.212;2024-03-02T07:50:40;97271.53;;;10.96;66.60
19259;BME280;9763;48.780;9.212;2024-03-02T07:54:05;97277.25;;;11.10;66.43
19259;BME280;9763;48.780;9.212;2024-03-02T07:57:28;97273.97;;;11.18;66.65
19259;BME280;9763;48.780;9.212;2024-03-02T08:00:52;97284.19;;;11.31;66.47
19259;BME280;9763;48.780;9.212;2024-03-02T08:04:18;97278.84;;;11.42;66.38
19259;BME280;9763;48.780;9.212;2024-03-02T08:07:43;97276.97;;;11.53;66.56
19259;BME280;9763;48.780;9.212;2024-03-02T08:11:07;97273.41;;;11.64;66.35
19259;BME280;9763;48.780;9.212;2024-03-02T08:14:31;97263.78;;;11.74;66.36
19259;BME280;9763;48.780;9.212;2024-03-02T08:17:54;97263.00;;;11.83;66.56
19259;BME280;9763;48.780;9.212;2024-03-02T08:21:20;97260.13;;;11.96;67.09
19259;BME280;9763;48.780;9.212;2024-03-02T08:24:43;97256.28;;;12.10;66.80
19259;BME280;9763;48.780;9.212;2024-03-02T08:28:08;97255.59;;;12.27;66.60
19259;BME280;9763;48.780;9.212;2024-03-02T08:31:32;97254.34;;;12.50;66.80
19259;BME280;9763;48.780;9.212;2024-03-02T08:34:55;97250.31;;;13.22;67.76
19259;BME280;9763;48.780;9.212;2024-03-02T08:38:20;97241.00;;;14.35;68.03
19259;BME280;9763;48.780;9.212;2024-03-02T08:41:45;97239.72;;;15.51;67.89
19259;BME280;9763;48.780;9.212;2024-03-02T08:45:09;97250.84;;;17.17;67.64
19259;BME280;9763;48.780;9.212;2024-03-02T08:48:33;97244.91;;;19.14;65.44
19259;BME280;9763;48.780;9.212;2024-03-02T08:51:57;97228.19;;;20.72;62.14
19259;BME280;9763;48.780;9.212;2024-03-02T08:55:22;97226.00;;;20.82;60.89
19259;BME280;9763;48.780;9.212;2024-03-02T08:58:45;97231.28;;;20.33;60.59
19259;BME280;9763;48.780;9.212;2024-03-02T09:02:09;97227.84;;;20.18;60.94
19259;BME280;9763;48.780;9.212;2024-03-02T09:05:32;97232.25;;;21.02;61.96
19259;BME280;9763;48.780;9.212;2024-03-02T09:08:57;97227.13;;;22.50;60.54
19259;BME280;9763;48.780;9.212;2024-03-02T09:12:21;97224.38;;;23.94;59.12
19259;BME280;9763;48.780;9.212;2024-03-02T09:15:45;97221.00;;;24.99;56.42
19259;BME280;9763;48.780;9.212;2024-03-02T09:19:09;97223.25;;;25.94;54.91
19259;BME280;9763;48.780;9.212;2024-03-02T09:22:33;97218.53;;;27.02;53.33
19259;BME280;9763;48.780;9.212;2024-03-02T09:25:56;97215.25;;;27.87;51.60
19259;BME280;9763;48.780;9.212;2024-03-02T09:29:21;97205.41;;;28.83;50.25
19259;BME280;9763;48.780;9.212;2024-03-02T09:32:45;97208.44;;;29.63;48.71
19259;BME280;9763;48.780;9.212;2024-03-02T09:36:17;97191.97;;;30.30;47.23
19259;BME280;9763;48.780;9.212;2024-03-02T09:39:43;97193.28;;;30.92;46.42
19259;BME280;9763;48.780;9.212;2024-03-02T09:43:08;97196.25;;;31.27;45.18
19259;BME280;9763;48.780;9.212;2024-03-02T09:46:34;97191.38;;;31.29;44.70
19259;BME280;9763;48.780;9.212;2024-03-02T09:49:59;97180.53;;;31.71;44.78
19259;BME280;9763;48.780;9.212;2024-03-02T09:53:24;97169.06;;;32.27;43.90
19259;BME280;9763;48.780;9.212;2024-03-02T09:56:50;97176.94;;;32.74;42.97
19259;BME280;9763;48.780;9.212;2024-03-02T10:00:15;97167.13;;;33.23;41.99
19259;BME280;9763;48.780;9.212;2024-03-02T10:03:40;97171.59;;;33.63;41.38
19259;BME280;9763;48.780;9.212;2024-03-02T10:07:12;97164.16;;;33.89;40.80
19259;BME280;9763;48.780;9.212;2024-03-02T10:10:38;97155.84;;;33.71;40.71
19259;BME280;9763;48.780;9.212;2024-03-02T10:14:08;97164.75;;;33.71;39.63
19259;BME280;9763;48.780;9.212;2024-03-02T10:17:33;97151.75;;;33.73;39.87
19259;BME280;9763;48.780;9.212;2024-03-02T10:21:13;97153.53;;;34.03;39.29
19259;BME280;9763;48.780;9.212;2024-03-02T10:24:39;97149.69;;;34.09;39.57
19259;BME280;9763;48.780;9.212;2024-03-02T10:28:04;97152.13;;;34.06;40.20
19259;BME280;9763;48.780;9.212;2024-03-02T10:31:28;97151.94;;;33.97;40.53
19259;BME280;9763;48.780;9.212;2024-03-02T10:34:52;97153.13;;;34.20;40.34
19259;BME280;9763;48.780;9.212;2024-03-02T10:38:17;97149.31;;;34.21;39.12
19259;BME280;9763;48.780;9.212;2024-03-02T10:41:41;97137.41;;;34.22;39.63
19259;BME280;9763;48.780;9.212;2024-03-02T10:45:08;97139.81;;;34.23;39.38
19259;BME280;9763;48.780;9.212;2024-03-02T10:48:35;97141.44;;;33.85;38.61
19259;BME280;9763;48.780;9.212;2024-03-02T10:52:00;97137.00;;;33.45;39.25
19259;BME280;9763;48.780;9.212;2024-03-02T10:55:25;97129.03;;;33.05;39.72
19259;BME280;9763;48.780;9.212;2024-03-02T10:58:55;97118.78;;;32.86;39.73
19259;BME280;9763;48.780;9.212;2024-03-02T11:02:26;97119.88;;;32.80;39.88
19259;BME280;9763;48.780;9.212;2024-03-02T11:05:52;97113.09;;;32.88;40.47
19259;BME280;9763;48.780;9.212;2024-03-02T11:09:20;97109.63;;;32.82;39.97
19259;BME280;9763;48.780;9.212;2024-03-02T11:12:53;97107.44;;;32.95;39.83
19259;BME280;9763;48.780;9.212;2024-03-02T11:16:33;97097.34;;;33.15;39.60
19259;BME280;9763;48.780;9.212;2024-03-02T11:19:58;97093.00;;;33.14;39.65
19259;BME280;9763;48.780;9.212;2024-03-02T11:23:32;97099.81;;;33.02;38.93
19259;BME280;9763;48.780;9.212;2024-03-02T11:26:56;97084.22;;;32.83;39.69
19259;BME280;9763;48.780;9.212;2024-03-02T11:30:52;97085.56;;;32.71;39.57
19259;BME280;9763;48.780;9.212;2024-03-02T11:34:29;97065.56;;;32.56;39.32
19259;BME280;9763;48.780;9.212;2024-03-02T11:37:53;97062.91;;;32.46;40.07
19259;BME280;9763;48.780;9.212;2024-03-02T11:41:16;97060.75;;;32.23;39.75
19259;BME280;9763;48.780;9.212;2024-03-02T11:44:43;97064.25;;;31.98;39.91
19259;BME280;9763;48.780;9.212;2024-03-02T11:48:14;97054.47;;;31.67;39.87
19259;BME280;9763;48.780;9.212;2024-03-02T11:51:50;97056.53;;;31.29;40.00
19259;BME280;9763;48.780;9.212;2024-03-02T11:55:18;97044.50;;;30.90;40.26
19259;BME280;9763;48.780;9.212;2024-03-02T11:58:43;97042.34;;;30.50;40.13
19259;BME280;9763;48.780;9.212;2024-03-02T12:02:15;97031.28;;;29.77;40.03
19259;BME280;9763;48.780;9.212;2024-03-02T12:05:42;97028.72;;;29.12;39.68
19259;BME280;9763;48.780;9.212;2024-03-02T12:09:06;97021.38;;;28.63;40.11
19259;BME280;9763;48.780;9.212;2024-03-02T12:12:33;97015.22;;;28.24;38.81
19259;BME280;9763;48.780;9.212;2024-03-02T12:15:57;97009.66;;;27.98;39.31
19259;BME280;9763;48.780;9.212;2024-03-02T12:19:22;97008.03;;;27.96;38.60
19259;BME280;9763;48.780;9.212;2024-03-02T12:22:47;97013.31;;;28.08;38.14
19259;BME280;9763;48.780;9.212;2024-03-02T12:26:10;97009.00;;;28.07;37.58
19259;BME280;9763;48.780;9.212;2024-03-02T12:29:34;97002.34;;;27.93;36.93
19259;BME280;9763;48.780;9.212;2024-03-02T12:32:58;97003.44;;;27.18;36.97
19259;BME280;9763;48.780;9.212;2024-03-02T12:36:22;97006.03;;;26.27;37.30
19259;BME280;9763;48.780;9.212;2024-03-02T12:39:47;96995.94;;;25.94;37.50
19259;BME280;9763;48.780;9.212;2024-03-02T12:43:10;96992.41;;;25.70;37.47
19259;BME280;9763;48.780;9.212;2024-03-02T12:46:34;96982.16;;;25.25;38.27
19259;BME280;9763;48.780;9.212;2024-03-02T12:49:59;96973.88;;;24.67;39.13
19259;BME280;9763;48.780;9.212;2024-03-02T12:53:23;96975.47;;;24.13;39.57
19259;BME280;9763;48.780;9.212;2024-03-02T12:56:48;96977.59;;;23.61;39.54
19259;BME280;9763;48.780;9.212;2024-03-02T13:00:13;96990.16;;;23.16;40.37
19259;BME280;9763;48.780;9.212;2024-03-02T13:03:38;96981.72;;;22.75;40.60
19259;BME280;9763;48.780;9.212;2024-03-02T13:07:02;96981.66;;;22.43;40.87
19259;BME280;9763;48.780;9.212;2024-03-02T13:10:27;96982.13;;;22.20;41.77
19259;BME280;9763;48.780;9.212;2024-03-02T13:13:52;96986.00;;;21.98;41.63
19259;BME280;9763;48.780;9.212;2024-03-02T13:17:17;96969.06;;;21.79;41.25
19259;BME280;9763;48.780;9.212;2024-03-02T13:20:40;96967.03;;;21.62;41.55
19259;BME280;9763;48.780;9.212;2024-03-02T13:24:05;96963.56;;;21.48;42.24
19259;BME280;9763;48.780;9.212;2024-03-02T13:27:29;96960.47;;;21.38;42.15
19259;BME280;9763;48.780;9.212;2024-03-02T13:30:55;96961.09;;;21.27;42.44
19259;BME280;9763;48.780;9.212;2024-03-02T13:34:19;96950.84;;;21.17;42.46
19259;BME280;9763;48.780;9.212;2024-03-02T13:37:42;96956.75;;;21.06;42.38
19259;BME280;9763;48.780;9.212;2024-03-02T13:41:06;96956.94;;;20.98;42.82
19259;BME280;9763;48.780;9.212;2024-03-02T13:44:30;96954.69;;;20.88;42.53
19259;BME280;9763;48.780;9.212;2024-03-02T13:47:55;96952.38;;;20.78;42.21
19259;BME280;9763;48.780;9.212;2024-03-02T13:51:18;96950.75;;;20.71;43.02
19259;BME280;9763;48.780;9.212;2024-03-02T13:54:44;96950.31;;;20.67;42.59
19259;BME280;9763;48.780;9.212;2024-03-02T13:58:09;96948.91;;;20.65;42.88
19259;BME280;9763;48.780;9.212;2024-03-02T14:01:33;96936.63;;;20.57;43.23
19259;BME280;9763;48.780;9.212;2024-03-02T14:04:58;96942.72;;;20.51;42.94
19259;BME280;9763;48.780;9.212;2024-03-02T14:08:23;96938.81;;;20.47;43.08
19259;BME280;9763;48.780;9.212;2024-03-02T14:11:46;96926.59;;;20.46;43.08
19259;BME280;9763;48.780;9.212;2024-03-02T14:15:11;96931.06;;;20.45;42.87
19259;BME280;9763;48.780;9.212;2024-03-02T14:18:35;96920.66;;;20.44;42.82
19259;BME280;9763;48.780;9.212;2024-03-02T14:22:00;96921.28;;;20.39;43.23
19259;BME280;9763;48.780;9.212;2024-03-02T14:25:24;96921.81;;;20.35;43.14
19259;BME280;9763;48.780;9.212;2024-03-02T14:28:48;96918.34;;;20.28;43.20
19259;BME280;9763;48.780;9.212;2024-03-02T14:32:14;96910.16;;;20.23;42.74
19259;BME280;9763;48.780;9.212;2024-03-02T14:35:37;96906.44;;;20.17;42.67
19259;BME280;9763;48.780;9.212;2024-03-02T14:39:02;96912.97;;;20.14;42.77
19259;BME280;9763;48.780;9.212;2024-03-02T14:42:26;96904.59;;;20.11;42.74
19259;BME280;9763;48.780;9.212;2024-03-02T14:45:53;96894.75;;;20.05;43.17
19259;BME280;9763;48.780;9.212;2024-03-02T14:49:17;96896.75;;;19.96;42.91
19259;BME280;9763;48.780;9.212;2024-03-02T14:52:41;96895.50;;;19.86;42.44
19259;BME280;9763;48.780;9.212;2024-03-02T14:56:08;96889.09;;;19.73;42.77
19259;BME280;9763;48.780;9.212;2024-03-02T14:59:33;96888.63;;;19.63;42.42
19259;BME280;9763;48.780;9.212;2024-03-02T15:02:57;96888.16;;;19.53;42.74
19259;BME280;9763;48.780;9.212;2024-03-02T15:06:21;96886.66;;;19.44;42.09
19259;BME280;9763;48.780;9.212;2024-03-02T15:09:44;96878.84;;;19.36;42.63
19259;BME280;9763;48.780;9.212;2024-03-02T15:13:10;96876.16;;;19.29;41.91
19259;BME280;9763;48.780;9.212;2024-03-02T15:16:33;96881.38;;;19.23;42.23
19259;BME280;9763;48.780;9.212;2024-03-02T15:19:57;96876.88;;;19.17;42.15
19259;BME280;9763;48.780;9.212;2024-03-02T15:23:21;96872.31;;;19.11;42.73
19259;BME280;9763;48.780;9.212;2024-03-02T15:26:44;96872.47;;;19.02;42.35
19259;BME280;9763;48.780;9.212;2024-03-02T15:30:10;96868.53;;;18.92;42.17
19259;BME280;9763;48.780;9.212;2024-03-02T15:33:34;96865.19;;;18.83;42.01
19259;BME280;9763;48.780;9.212;2024-03-02T15:36:57;96863.66;;;18.74;42.80
19259;BME280;9763;48.780;9.212;2024-03-02T15:40:21;96867.63;;;18.63;42.75
19259;BME280;9763;48.780;9.212;2024-03-02T15:43:45;96872.38;;;18.53;42.18
19259;BME280;9763;48.780;9.212;2024-03-02T15:47:10;96871.03;;;18.43;42.43
19259;BME280;9763;48.780;9.212;2024-03-02T15:50:34;96866.88;;;18.33;42.83
19259;BME280;9763;48.780;9.212;2024-03-02T15:53:59;96868.97;;;18.23;42.46
19259;BME280;9763;48.780;9.212;2024-03-02T15:57:23;96869.09;;;18.15;42.30
19259;BME280;9763;48.780;9.212;2024-03-02T16:00:47;96871.84;;;18.07;42.92
19259;BME280;9763;48.780;9.212;2024-03-02T16:04:12;96876.22;;;18.00;43.11
19259;BME280;9763;48.780;9.212;2024-03-02T16:07:36;96866.59;;;17.92;42.61
19259;BME280;9763;48.780;9.212;2024-03-02T16:11:00;96868.94;;;17.87;42.92
19259;BME280;9763;48.780;9.212;2024-03-02T16:14:26;96870.69;;;17.80;42.97
19259;BME280;9763;48.780;9.212;2024-03-02T16:17:50;96862.69;;;17.74;42.95
19259;BME280;9763;48.780;9.212;2024-03-02T16:21:15;96869.50;;;17.68;43.23
19259;BME280;9763;48.780;9.212;2024-03-02T16:24:39;96860.66;;;17.61;43.39
19259;BME280;9763;48.780;9.212;2024-03-02T16:28:04;96873.75;;;17.54;43.63
19259;BME280;9763;48.780;9.212;2024-03-02T16:31:28;96869.38;;;17.47;43.06
19259;BME280;9763;48.780;9.212;2024-03-02T16:34:51;96875.19;;;17.42;43.75
19259;BME280;9763;48.780;9.212;2024-03-02T16:38:17;96873.47;;;17.35;43.57
19259;BME280;9763;48.780;9.212;2024-03-02T16:41:41;96884.34;;;17.32;43.45
19259;BME280;9763;48.780;9.212;2024-03-02T16:45:10;96888.34;;;17.27;43.83
19259;BME280;9763;48.780;9.212;2024-03-02T16:48:34;96884.78;;;17.20;44.10
19259;BME280;9763;48.780;9.212;2024-03-02T16:51:58;96885.13;;;17.17;43.64
19259;BME280;9763;48.780;9.212;2024-03-02T16:55:23;96888.50;;;17.11;44.34
19259;BME280;9763;48.780;9.212;2024-03-02T16:58:47;96885.56;;;17.06;43.98
19259;BME280;9763;48.780;9.212;2024-03-02T17:02:11;96888.94;;;17.00;44.05
19259;BME280;9763;48.780;9.212;2024-03-02T17:05:35;96880.91;;;16.93;44.13
19259;BME280;9763;48.780;9.212;2024-03-02T17:08:58;96881.78;;;16.86;44.22
19259;BME280;9763;48.780;9.212;2024-03-02T17:12:24;96878.19;;;16.79;44.87
19259;BME280;9763;48.780;9.212;2024-03-02T17:15:47;96884.00;;;16.74;44.57
19259;BME280;9763;48.780;9.212;2024-03-02T17:19:11;96883.88;;;16.68;45.23
19259;BME280;9763;48.780;9.212;2024-03-02T17:22:35;96881.09;;;16.61;45.29
19259;BME280;9763;48.780;9.212;2024-03-02T17:25:58;96880.97;;;16.54;44.76
19259;BME280;9763;48.780;9.212;2024-03-02T17:29:23;96883.50;;;16.48;45.08
19259;BME280;9763;48.780;9.212;2024-03-02T17:32:47;96893.38;;;16.46;45.16
19259;BME280;9763;48.780;9.212;2024-03-02T17:36:11;96894.91;;;16.40;45.03
19259;BME280;9763;48.780;9.212;2024-03-02T17:39:35;96894.44;;;16.37;45.76
19259;BME280;9763;48.780;9.212;2024-03-02T17:42:58;96894.59;;;16.35;45.97
19259;BME280;9763;48.780;9.212;2024-03-02T17:46:24;96903.81;;;16.31;46.17
19259;BME280;9763;48.780;9.212;2024-03-02T17:49:47;96905.00;;;16.29;46.47
19259;BME280;9763;48.780;9.212;2024-03-02T17:53:11;96901.72;;;16.27;46.50
19259;BME280;9763;48.780;9.212;2024-03-02T17:56:35;96903.53;;;16.26;46.79
19259;BME280;9763;48.780;9.212;2024-03-02T17:59:58;96907.16;;;16.25;46.23
19259;BME280;9763;48.780;9.212;2024-03-02T18:03:25;96896.97;;;16.22;47.01
19259;BME280;9763;48.780;9.212;2024-03-02T18:06:49;96890.22;;;16.19;46.78
19259;BME280;9763;48.780;9.212;2024-03-02T18:10:12;96893.84;;;16.18;47.16
19259;BME280;9763;48.780;9.212;2024-03-02T18:13:36;96883.69;;;16.15;47.13
19259;BME280;9763;48.780;9.212;2024-03-02T18:17:00;96871.69;;;16.13;47.62
19259;BME280;9763;48.780;9.212;2024-03-02T18:20:24;96870.38;;;16.09;47.63
19259;BME280;9763;48.780;9.212;2024-03-02T18:23:48;96867.28;;;16.05;47.09
19259;BME280;9763;48.780;9.212;2024-03-02T18:27:12;96872.06;;;16.02;47.89